Drayton, South Carolina
Current Conditions -  °F | °C
As of 5:55 PM on Wednesday 22 Oct 2014 (Local Time) from KSPA Reporting Station
Clear Clear  
Wind Chill: 66°   Ceiling: Unl
Heat Index: 66°   Visibility: 10mi
Dew Point: 36°   Wind: 12mph
Humidity: 32%   Direction: 20°NNE
Pressure: 30.05"   Gusts: 16mph
Location:  34.96°N, 81.9°W
Report Text: KSPA 222155Z AUTO 02010G14KT 10SM CLR 19/02 A3005 RMK AO2
Loading
Personal Weather Stations






























Interactive Weather Map
Tropical Storm Tracking
New forecast layout! Learn more

10-Day Weather Forecast

Advertisements
Track Severe Weather on mobile